sensor_id;sensor_type;location;lat;lon;timestamp;temperature;humidity
63899;HTU21D;50070;-32.946;-60.652;2023-04-25T00:02:17;21.27;82.53
63899;HTU21D;50070;-32.946;-60.652;2023-04-25T00:04:45;21.22;82.98
63899;HTU21D;50070;-32.946;-60.652;2023-04-25T00:07:14;21.22;82.98
63899;HTU21D;50070;-32.946;-60.652;2023-04-25T00:09:42;21.22;83.36
63899;HTU21D;50070;-32.946;-60.652;2023-04-25T00:12:08;21.20;83.20
63899;HTU21D;50070;-32.946;-60.652;2023-04-25T00:14:35;21.27;83.13
63899;HTU21D;50070;-32.946;-60.652;2023-04-25T00:17:02;21.43;82.34
63899;HTU21D;50070;-32.946;-60.652;2023-04-25T00:19:29;21.51;81.68
63899;HTU21D;50070;-32.946;-60.652;2023-04-25T00:21:56;21.39;82.40
63899;HTU21D;50070;-32.946;-60.652;2023-04-25T00:24:23;21.35;82.74
63899;HTU21D;50070;-32.946;-60.652;2023-04-25T00:26:50;21.16;83.65
63899;HTU21D;50070;-32.946;-60.652;2023-04-25T00:29:17;21.14;83.73
63899;HTU21D;50070;-32.946;-60.652;2023-04-25T00:31:43;20.92;84.89
63899;HTU21D;50070;-32.946;-60.652;2023-04-25T00:34:10;21.08;84.21
63899;HTU21D;50070;-32.946;-60.652;2023-04-25T00:36:37;21.14;84.00
63899;HTU21D;50070;-32.946;-60.652;2023-04-25T00:39:04;21.03;84.55
63899;HTU21D;50070;-32.946;-60.652;2023-04-25T00:41:31;21.13;84.14
63899;HTU21D;50070;-32.946;-60.652;2023-04-25T00:43:58;21.25;83.57
63899;HTU21D;50070;-32.946;-60.652;2023-04-25T00:46:25;21.04;84.88
63899;HTU21D;50070;-32.946;-60.652;2023-04-25T00:48:52;20.96;85.02
63899;HTU21D;50070;-32.946;-60.652;2023-04-25T00:51:22;21.00;84.88
63899;HTU21D;50070;-32.946;-60.652;2023-04-25T00:53:50;20.96;84.96
63899;HTU21D;50070;-32.946;-60.652;2023-04-25T00:56:17;20.98;84.92
63899;HTU21D;50070;-32.946;-60.652;2023-04-25T00:58:44;20.96;84.99
63899;HTU21D;50070;-32.946;-60.652;2023-04-25T01:01:12;20.90;85.36
63899;HTU21D;50070;-32.946;-60.652;2023-04-25T01:03:40;21.00;85.13
63899;HTU21D;50070;-32.946;-60.652;2023-04-25T01:06:10;21.03;85.09
63899;HTU21D;50070;-32.946;-60.652;2023-04-25T01:08:38;21.02;85.51
63899;HTU21D;50070;-32.946;-60.652;2023-04-25T01:11:06;21.06;85.36
63899;HTU21D;50070;-32.946;-60.652;2023-04-25T01:13:33;20.91;86.32
63899;HTU21D;50070;-32.946;-60.652;2023-04-25T01:16:00;21.14;85.33
63899;HTU21D;50070;-32.946;-60.652;2023-04-25T01:18:27;21.10;85.74
63899;HTU21D;50070;-32.946;-60.652;2023-04-25T01:20:55;21.08;85.69
63899;HTU21D;50070;-32.946;-60.652;2023-04-25T01:23:22;21.05;85.91
63899;HTU21D;50070;-32.946;-60.652;2023-04-25T01:25:49;21.04;85.97
63899;HTU21D;50070;-32.946;-60.652;2023-04-25T01:28:17;21.07;85.89
63899;HTU21D;50070;-32.946;-60.652;2023-04-25T01:30:44;21.03;86.33
63899;HTU21D;50070;-32.946;-60.652;2023-04-25T01:33:12;20.94;86.94
63899;HTU21D;50070;-32.946;-60.652;2023-04-25T01:35:40;21.01;86.29
63899;HTU21D;50070;-32.946;-60.652;2023-04-25T01:38:07;21.03;86.25
63899;HTU21D;50070;-32.946;-60.652;2023-04-25T01:40:34;21.07;85.89
63899;HTU21D;50070;-32.946;-60.652;2023-04-25T01:43:03;21.00;86.28
63899;HTU21D;50070;-32.946;-60.652;2023-04-25T01:45:30;21.04;85.90
63899;HTU21D;50070;-32.946;-60.652;2023-04-25T01:47:57;21.03;86.22
63899;HTU21D;50070;-32.946;-60.652;2023-04-25T01:50:25;21.17;85.20
63899;HTU21D;50070;-32.946;-60.652;2023-04-25T01:52:53;21.07;85.77
63899;HTU21D;50070;-32.946;-60.652;2023-04-25T01:55:19;21.09;85.47
63899;HTU21D;50070;-32.946;-60.652;2023-04-25T01:57:46;21.06;85.69
63899;HTU21D;50070;-32.946;-60.652;2023-04-25T02:00:13;20.98;85.69
63899;HTU21D;50070;-32.946;-60.652;2023-04-25T02:02:40;21.24;84.47
63899;HTU21D;50070;-32.946;-60.652;2023-04-25T02:05:07;21.16;84.43
63899;HTU21D;50070;-32.946;-60.652;2023-04-25T02:07:34;21.15;84.50
63899;HTU21D;50070;-32.946;-60.652;2023-04-25T02:10:01;21.16;84.38
63899;HTU21D;50070;-32.946;-60.652;2023-04-25T02:12:28;21.21;84.11
63899;HTU21D;50070;-32.946;-60.652;2023-04-25T02:14:55;21.19;83.99
63899;HTU21D;50070;-32.946;-60.652;2023-04-25T02:17:21;21.11;83.84
63899;HTU21D;50070;-32.946;-60.652;2023-04-25T02:19:48;21.11;83.62
63899;HTU21D;50070;-32.946;-60.652;2023-04-25T02:22:16;21.14;83.51
63899;HTU21D;50070;-32.946;-60.652;2023-04-25T02:24:42;21.11;83.39
63899;HTU21D;50070;-32.946;-60.652;2023-04-25T02:27:09;21.16;83.26
63899;HTU21D;50070;-32.946;-60.652;2023-04-25T02:29:35;21.22;82.78
63899;HTU21D;50070;-32.946;-60.652;2023-04-25T02:32:02;21.21;82.84
63899;HTU21D;50070;-32.946;-60.652;2023-04-25T02:34:29;21.42;81.90
63899;HTU21D;50070;-32.946;-60.652;2023-04-25T02:36:56;21.28;82.26
63899;HTU21D;50070;-32.946;-60.652;2023-04-25T02:39:23;21.37;82.08
63899;HTU21D;50070;-32.946;-60.652;2023-04-25T02:41:52;21.42;81.69
63899;HTU21D;50070;-32.946;-60.652;2023-04-25T02:44:18;21.43;81.33
63899;HTU21D;50070;-32.946;-60.652;2023-04-25T02:46:46;21.42;81.38
63899;HTU21D;50070;-32.946;-60.652;2023-04-25T02:49:12;21.24;82.51
63899;HTU21D;50070;-32.946;-60.652;2023-04-25T02:51:39;21.04;83.81
63899;HTU21D;50070;-32.946;-60.652;2023-04-25T02:54:06;21.17;83.35
63899;HTU21D;50070;-32.946;-60.652;2023-04-25T02:56:32;21.16;83.55
63899;HTU21D;50070;-32.946;-60.652;2023-04-25T02:58:59;21.10;84.29
63899;HTU21D;50070;-32.946;-60.652;2023-04-25T03:01:26;21.18;84.49
63899;HTU21D;50070;-32.946;-60.652;2023-04-25T03:03:52;21.08;85.35
63899;HTU21D;50070;-32.946;-60.652;2023-04-25T03:06:19;20.94;86.45
63899;HTU21D;50070;-32.946;-60.652;2023-04-25T03:08:46;21.04;86.00
63899;HTU21D;50070;-32.946;-60.652;2023-04-25T03:11:13;20.86;87.19
63899;HTU21D;50070;-32.946;-60.652;2023-04-25T03:13:39;21.07;86.16
63899;HTU21D;50070;-32.946;-60.652;2023-04-25T03:16:06;21.08;86.49
63899;HTU21D;50070;-32.946;-60.652;2023-04-25T03:18:33;20.75;87.95
63899;HTU21D;50070;-32.946;-60.652;2023-04-25T03:21:00;20.63;88.99
63899;HTU21D;50070;-32.946;-60.652;2023-04-25T03:23:26;20.71;88.75
63899;HTU21D;50070;-32.946;-60.652;2023-04-25T03:25:53;20.73;88.77
63899;HTU21D;50070;-32.946;-60.652;2023-04-25T03:28:20;20.78;88.37
63899;HTU21D;50070;-32.946;-60.652;2023-04-25T03:30:47;20.93;87.73
63899;HTU21D;50070;-32.946;-60.652;2023-04-25T03:33:13;20.86;88.05
63899;HTU21D;50070;-32.946;-60.652;2023-04-25T03:35:40;20.79;87.93
63899;HTU21D;50070;-32.946;-60.652;2023-04-25T03:38:07;20.78;88.00
63899;HTU21D;50070;-32.946;-60.652;2023-04-25T03:40:34;20.79;88.15
63899;HTU21D;50070;-32.946;-60.652;2023-04-25T03:43:00;20.84;87.71
63899;HTU21D;50070;-32.946;-60.652;2023-04-25T03:45:27;20.91;87.18
63899;HTU21D;50070;-32.946;-60.652;2023-04-25T03:47:54;21.15;85.77
63899;HTU21D;50070;-32.946;-60.652;2023-04-25T03:50:21;21.03;86.06
63899;HTU21D;50070;-32.946;-60.652;2023-04-25T03:52:47;21.15;85.93
63899;HTU21D;50070;-32.946;-60.652;2023-04-25T03:55:14;21.06;85.87
63899;HTU21D;50070;-32.946;-60.652;2023-04-25T03:57:41;20.99;86.26
63899;HTU21D;50070;-32.946;-60.652;2023-04-25T04:00:08;20.79;87.64
63899;HTU21D;50070;-32.946;-60.652;2023-04-25T04:02:35;20.77;87.32
63899;HTU21D;50070;-32.946;-60.652;2023-04-25T04:05:03;20.84;87.22
63899;HTU21D;50070;-32.946;-60.652;2023-04-25T04:07:31;20.70;87.92
63899;HTU21D;50070;-32.946;-60.652;2023-04-25T04:09:59;20.74;87.59
63899;HTU21D;50070;-32.946;-60.652;2023-04-25T04:12:26;20.51;88.38
63899;HTU21D;50070;-32.946;-60.652;2023-04-25T04:14:53;20.56;87.89
63899;HTU21D;50070;-32.946;-60.652;2023-04-25T04:17:19;20.64;87.62
63899;HTU21D;50070;-32.946;-60.652;2023-04-25T04:19:46;20.53;88.16
63899;HTU21D;50070;-32.946;-60.652;2023-04-25T04:22:13;20.48;88.35
63899;HTU21D;50070;-32.946;-60.652;2023-04-25T04:24:40;20.58;87.76
63899;HTU21D;50070;-32.946;-60.652;2023-04-25T04:27:10;20.47;87.78
63899;HTU21D;50070;-32.946;-60.652;2023-04-25T04:29:38;20.21;89.08
63899;HTU21D;50070;-32.946;-60.652;2023-04-25T04:32:05;20.37;88.54
63899;HTU21D;50070;-32.946;-60.652;2023-04-25T04:34:35;20.53;87.99
63899;HTU21D;50070;-32.946;-60.652;2023-04-25T04:37:02;20.55;88.15
63899;HTU21D;50070;-32.946;-60.652;2023-04-25T04:39:28;20.81;87.08
63899;HTU21D;50070;-32.946;-60.652;2023-04-25T04:41:55;20.68;88.69
63899;HTU21D;50070;-32.946;-60.652;2023-04-25T04:44:22;20.81;88.27
63899;HTU21D;50070;-32.946;-60.652;2023-04-25T04:46:49;20.86;87.94
63899;HTU21D;50070;-32.946;-60.652;2023-04-25T04:49:16;20.66;88.79
63899;HTU21D;50070;-32.946;-60.652;2023-04-25T04:51:43;20.54;89.86
63899;HTU21D;50070;-32.946;-60.652;2023-04-25T04:54:13;20.47;90.89
63899;HTU21D;50070;-32.946;-60.652;2023-04-25T04:56:40;20.37;91.23
63899;HTU21D;50070;-32.946;-60.652;2023-04-25T04:59:08;20.31;92.05
63899;HTU21D;50070;-32.946;-60.652;2023-04-25T05:01:35;20.28;92.24
63899;HTU21D;50070;-32.946;-60.652;2023-04-25T05:04:01;20.06;93.66
63899;HTU21D;50070;-32.946;-60.652;2023-04-25T05:06:29;20.04;93.22
63899;HTU21D;50070;-32.946;-60.652;2023-04-25T05:08:57;19.91;93.33
63899;HTU21D;50070;-32.946;-60.652;2023-04-25T05:11:24;19.82;93.99
63899;HTU21D;50070;-32.946;-60.652;2023-04-25T05:13:52;20.21;92.60
63899;HTU21D;50070;-32.946;-60.652;2023-04-25T05:16:19;20.30;91.82
63899;HTU21D;50070;-32.946;-60.652;2023-04-25T05:18:47;20.22;92.32
63899;HTU21D;50070;-32.946;-60.652;2023-04-25T05:21:14;20.45;91.69
63899;HTU21D;50070;-32.946;-60.652;2023-04-25T05:23:41;20.09;93.44
63899;HTU21D;50070;-32.946;-60.652;2023-04-25T05:26:07;20.10;92.88
63899;HTU21D;50070;-32.946;-60.652;2023-04-25T05:28:42;20.34;91.44
63899;HTU21D;50070;-32.946;-60.652;2023-04-25T05:31:12;19.97;94.20
63899;HTU21D;50070;-32.946;-60.652;2023-04-25T05:33:39;19.83;93.82
63899;HTU21D;50070;-32.946;-60.652;2023-04-25T05:36:06;19.85;93.72
63899;HTU21D;50070;-32.946;-60.652;2023-04-25T05:38:33;19.98;92.82
63899;HTU21D;50070;-32.946;-60.652;2023-04-25T05:40:59;19.87;93.57
63899;HTU21D;50070;-32.946;-60.652;2023-04-25T05:43:25;20.09;92.47
63899;HTU21D;50070;-32.946;-60.652;2023-04-25T05:45:52;20.02;92.08
63899;HTU21D;50070;-32.946;-60.652;2023-04-25T05:48:18;20.06;92.31
63899;HTU21D;50070;-32.946;-60.652;2023-04-25T05:50:45;19.71;95.57
63899;HTU21D;50070;-32.946;-60.652;2023-04-25T05:53:12;19.86;93.77
63899;HTU21D;50070;-32.946;-60.652;2023-04-25T05:55:39;20.12;92.72
63899;HTU21D;50070;-32.946;-60.652;2023-04-25T05:58:05;20.04;93.40
63899;HTU21D;50070;-32.946;-60.652;2023-04-25T06:00:33;20.27;91.31
63899;HTU21D;50070;-32.946;-60.652;2023-04-25T06:03:00;19.86;93.48
63899;HTU21D;50070;-32.946;-60.652;2023-04-25T06:05:27;19.73;94.59
63899;HTU21D;50070;-32.946;-60.652;2023-04-25T06:07:54;19.53;95.34
63899;HTU21D;50070;-32.946;-60.652;2023-04-25T06:10:21;19.74;94.20
63899;HTU21D;50070;-32.946;-60.652;2023-04-25T06:12:49;19.99;92.97
63899;HTU21D;50070;-32.946;-60.652;2023-04-25T06:15:15;19.89;92.41
63899;HTU21D;50070;-32.946;-60.652;2023-04-25T06:17:42;19.54;90.87
63899;HTU21D;50070;-32.946;-60.652;2023-04-25T06:20:09;19.50;92.20
63899;HTU21D;50070;-32.946;-60.652;2023-04-25T06:22:36;19.47;95.25
63899;HTU21D;50070;-32.946;-60.652;2023-04-25T06:25:03;19.61;93.23
63899;HTU21D;50070;-32.946;-60.652;2023-04-25T06:27:30;19.79;92.64
63899;HTU21D;50070;-32.946;-60.652;2023-04-25T06:29:57;19.52;93.17
63899;HTU21D;50070;-32.946;-60.652;2023-04-25T06:32:24;19.36;94.43
63899;HTU21D;50070;-32.946;-60.652;2023-04-25T06:34:51;19.18;95.60
63899;HTU21D;50070;-32.946;-60.652;2023-04-25T06:37:17;19.20;95.84
63899;HTU21D;50070;-32.946;-60.652;2023-04-25T06:39:44;19.42;95.07
63899;HTU21D;50070;-32.946;-60.652;2023-04-25T06:42:10;19.51;94.92
63899;HTU21D;50070;-32.946;-60.652;2023-04-25T06:44:37;19.55;94.98
63899;HTU21D;50070;-32.946;-60.652;2023-04-25T06:47:04;19.74;93.45
63899;HTU21D;50070;-32.946;-60.652;2023-04-25T06:49:31;19.56;95.33
63899;HTU21D;50070;-32.946;-60.652;2023-04-25T06:51:57;19.50;95.51
63899;HTU21D;50070;-32.946;-60.652;2023-04-25T06:54:24;19.44;96.10
63899;HTU21D;50070;-32.946;-60.652;2023-04-25T06:56:53;19.38;95.98
63899;HTU21D;50070;-32.946;-60.652;2023-04-25T06:59:20;19.38;96.45
63899;HTU21D;50070;-32.946;-60.652;2023-04-25T07:01:47;19.31;96.36
63899;HTU21D;50070;-32.946;-60.652;2023-04-25T07:04:13;19.27;96.62
63899;HTU21D;50070;-32.946;-60.652;2023-04-25T07:06:40;19.33;97.20
63899;HTU21D;50070;-32.946;-60.652;2023-04-25T07:09:11;19.43;96.97
63899;HTU21D;50070;-32.946;-60.652;2023-04-25T07:11:38;19.44;96.49
63899;HTU21D;50070;-32.946;-60.652;2023-04-25T07:14:05;19.71;95.18
63899;HTU21D;50070;-32.946;-60.652;2023-04-25T07:16:31;19.80;94.29
63899;HTU21D;50070;-32.946;-60.652;2023-04-25T07:18:58;19.83;94.23
63899;HTU21D;50070;-32.946;-60.652;2023-04-25T07:21:28;19.73;94.84
63899;HTU21D;50070;-32.946;-60.652;2023-04-25T07:23:54;19.73;95.35
63899;HTU21D;50070;-32.946;-60.652;2023-04-25T07:26:21;19.72;95.49
63899;HTU21D;50070;-32.946;-60.652;2023-04-25T07:28:48;19.63;95.74
63899;HTU21D;50070;-32.946;-60.652;2023-04-25T07:31:17;19.65;95.16
63899;HTU21D;50070;-32.946;-60.652;2023-04-25T07:33:44;19.44;94.98
63899;HTU21D;50070;-32.946;-60.652;2023-04-25T07:36:12;19.42;94.63
63899;HTU21D;50070;-32.946;-60.652;2023-04-25T07:38:39;19.23;95.18
63899;HTU21D;50070;-32.946;-60.652;2023-04-25T07:41:06;19.08;94.49
63899;HTU21D;50070;-32.946;-60.652;2023-04-25T07:43:32;18.88;95.84
63899;HTU21D;50070;-32.946;-60.652;2023-04-25T07:45:59;19.02;95.94
63899;HTU21D;50070;-32.946;-60.652;2023-04-25T07:48:26;19.02;96.16
63899;HTU21D;50070;-32.946;-60.652;2023-04-25T07:50:52;19.10;95.34
63899;HTU21D;50070;-32.946;-60.652;2023-04-25T07:53:19;19.20;94.83
63899;HTU21D;50070;-32.946;-60.652;2023-04-25T07:55:46;18.98;95.20
63899;HTU21D;50070;-32.946;-60.652;2023-04-25T07:58:13;18.78;96.46
63899;HTU21D;50070;-32.946;-60.652;2023-04-25T08:00:41;18.80;96.65
63899;HTU21D;50070;-32.946;-60.652;2023-04-25T08:03:09;18.76;97.32
63899;HTU21D;50070;-32.946;-60.652;2023-04-25T08:05:36;18.86;95.31
63899;HTU21D;50070;-32.946;-60.652;2023-04-25T08:08:03;18.87;95.15
63899;HTU21D;50070;-32.946;-60.652;2023-04-25T08:10:32;18.89;95.09
63899;HTU21D;50070;-32.946;-60.652;2023-04-25T08:12:59;18.91;94.32
63899;HTU21D;50070;-32.946;-60.652;2023-04-25T08:15:26;18.78;95.26
63899;HTU21D;50070;-32.946;-60.652;2023-04-25T08:17:53;18.92;95.30
63899;HTU21D;50070;-32.946;-60.652;2023-04-25T08:20:20;18.96;94.49
63899;HTU21D;50070;-32.946;-60.652;2023-04-25T08:22:46;18.94;94.80
63899;HTU21D;50070;-32.946;-60.652;2023-04-25T08:25:14;18.91;94.85
63899;HTU21D;50070;-32.946;-60.652;2023-04-25T08:27:41;18.98;94.82
63899;HTU21D;50070;-32.946;-60.652;2023-04-25T08:30:08;18.97;95.03
63899;HTU21D;50070;-32.946;-60.652;2023-04-25T08:32:35;18.85;96.37
63899;HTU21D;50070;-32.946;-60.652;2023-04-25T08:35:04;18.79;96.58
63899;HTU21D;50070;-32.946;-60.652;2023-04-25T08:37:31;18.85;96.37
63899;HTU21D;50070;-32.946;-60.652;2023-04-25T08:39:58;18.82;95.85
63899;HTU21D;50070;-32.946;-60.652;2023-04-25T08:42:27;18.76;94.87
63899;HTU21D;50070;-32.946;-60.652;2023-04-25T08:44:55;18.98;93.94
63899;HTU21D;50070;-32.946;-60.652;2023-04-25T08:47:24;18.89;93.93
63899;HTU21D;50070;-32.946;-60.652;2023-04-25T08:49:54;18.76;93.45
63899;HTU21D;50070;-32.946;-60.652;2023-04-25T08:52:22;18.92;93.40
63899;HTU21D;50070;-32.946;-60.652;2023-04-25T08:54:51;18.84;92.89
63899;HTU21D;50070;-32.946;-60.652;2023-04-25T08:57:21;18.91;92.30
63899;HTU21D;50070;-32.946;-60.652;2023-04-25T08:59:49;18.94;92.86
63899;HTU21D;50070;-32.946;-60.652;2023-04-25T09:02:17;18.98;94.11
63899;HTU21D;50070;-32.946;-60.652;2023-04-25T09:04:46;18.99;92.84
63899;HTU21D;50070;-32.946;-60.652;2023-04-25T09:07:13;18.93;92.49
63899;HTU21D;50070;-32.946;-60.652;2023-04-25T09:09:44;19.03;91.83
63899;HTU21D;50070;-32.946;-60.652;2023-04-25T09:12:11;19.05;92.53
63899;HTU21D;50070;-32.946;-60.652;2023-04-25T09:14:38;19.08;92.43
63899;HTU21D;50070;-32.946;-60.652;2023-04-25T09:17:05;18.80;93.12
63899;HTU21D;50070;-32.946;-60.652;2023-04-25T09:19:36;18.92;93.84
63899;HTU21D;50070;-32.946;-60.652;2023-04-25T09:22:06;18.85;93.19
63899;HTU21D;50070;-32.946;-60.652;2023-04-25T09:24:42;18.83;93.66
63899;HTU21D;50070;-32.946;-60.652;2023-04-25T09:27:11;18.78;94.38
63899;HTU21D;50070;-32.946;-60.652;2023-04-25T09:29:40;18.68;94.21
63899;HTU21D;50070;-32.946;-60.652;2023-04-25T09:32:20;18.87;94.55
63899;HTU21D;50070;-32.946;-60.652;2023-04-25T09:34:49;19.01;94.26
63899;HTU21D;50070;-32.946;-60.652;2023-04-25T09:37:21;19.21;93.71
63899;HTU21D;50070;-32.946;-60.652;2023-04-25T09:39:50;19.00;94.84
63899;HTU21D;50070;-32.946;-60.652;2023-04-25T09:42:17;19.05;95.07
63899;HTU21D;50070;-32.946;-60.652;2023-04-25T09:44:46;19.16;94.34
63899;HTU21D;50070;-32.946;-60.652;2023-04-25T09:47:14;19.09;95.17
63899;HTU21D;50070;-32.946;-60.652;2023-04-25T09:49:47;19.06;93.56
63899;HTU21D;50070;-32.946;-60.652;2023-04-25T09:52:17;19.15;92.56
63899;HTU21D;50070;-32.946;-60.652;2023-04-25T09:54:48;19.10;91.68
63899;HTU21D;50070;-32.946;-60.652;2023-04-25T09:57:23;19.09;91.82
63899;HTU21D;50070;-32.946;-60.652;2023-04-25T09:59:51;19.12;93.59
63899;HTU21D;50070;-32.946;-60.652;2023-04-25T10:02:24;19.29;93.49
63899;HTU21D;50070;-32.946;-60.652;2023-04-25T10:04:51;19.20;94.24
63899;HTU21D;50070;-32.946;-60.652;2023-04-25T10:07:23;19.03;93.67
63899;HTU21D;50070;-32.946;-60.652;2023-04-25T10:09:58;19.09;94.44
63899;HTU21D;50070;-32.946;-60.652;2023-04-25T10:12:30;19.14;94.88
63899;HTU21D;50070;-32.946;-60.652;2023-04-25T10:15:00;19.15;95.18
63899;HTU21D;50070;-32.946;-60.652;2023-04-25T10:17:27;19.11;94.91
63899;HTU21D;50070;-32.946;-60.652;2023-04-25T10:19:54;19.14;95.07
63899;HTU21D;50070;-32.946;-60.652;2023-04-25T10:22:43;19.25;95.04
63899;HTU21D;50070;-32.946;-60.652;2023-04-25T10:25:11;19.18;95.24
63899;HTU21D;50070;-32.946;-60.652;2023-04-25T10:27:39;19.18;95.13
63899;HTU21D;50070;-32.946;-60.652;2023-04-25T10:30:10;19.20;95.06
63899;HTU21D;50070;-32.946;-60.652;2023-04-25T10:32:38;19.16;96.00
63899;HTU21D;50070;-32.946;-60.652;2023-04-25T10:38:02;19.11;96.20
63899;HTU21D;50070;-32.946;-60.652;2023-04-25T10:40:31;19.14;96.45
63899;HTU21D;50070;-32.946;-60.652;2023-04-25T10:43:34;19.21;96.01
63899;HTU21D;50070;-32.946;-60.652;2023-04-25T10:46:01;19.18;95.48
63899;HTU21D;50070;-32.946;-60.652;2023-04-25T10:48:30;19.24;95.38
63899;HTU21D;50070;-32.946;-60.652;2023-04-25T10:51:10;19.23;95.39
63899;HTU21D;50070;-32.946;-60.652;2023-04-25T10:53:37;19.23;95.45
63899;HTU21D;50070;-32.946;-60.652;2023-04-25T10:56:25;19.29;95.49
63899;HTU21D;50070;-32.946;-60.652;2023-04-25T10:58:52;19.25;95.67
63899;HTU21D;50070;-32.946;-60.652;2023-04-25T11:01:36;19.12;95.93
63899;HTU21D;50070;-32.946;-60.652;2023-04-25T11:04:03;19.17;95.73
63899;HTU21D;50070;-32.946;-60.652;2023-04-25T11:06:46;18.94;95.84
63899;HTU21D;50070;-32.946;-60.652;2023-04-25T11:09:17;19.10;94.81
63899;HTU21D;50070;-32.946;-60.652;2023-04-25T11:11:54;19.09;94.90
63899;HTU21D;50070;-32.946;-60.652;2023-04-25T11:14:21;19.21;95.03
63899;HTU21D;50070;-32.946;-60.652;2023-04-25T11:16:56;18.92;94.90
63899;HTU21D;50070;-32.946;-60.652;2023-04-25T11:19:24;19.03;96.02
63899;HTU21D;50070;-32.946;-60.652;2023-04-25T11:21:55;18.92;96.24
63899;HTU21D;50070;-32.946;-60.652;2023-04-25T11:24:32;18.97;96.94
63899;HTU21D;50070;-32.946;-60.652;2023-04-25T11:27:01;18.88;96.83
63899;HTU21D;50070;-32.946;-60.652;2023-04-25T11:29:35;18.91;96.37
63899;HTU21D;50070;-32.946;-60.652;2023-04-25T11:32:02;18.95;96.12
63899;HTU21D;50070;-32.946;-60.652;2023-04-25T11:34:30;19.07;96.06
63899;HTU21D;50070;-32.946;-60.652;2023-04-25T11:36:57;19.02;94.40
63899;HTU21D;50070;-32.946;-60.652;2023-04-25T11:39:25;19.15;94.43
63899;HTU21D;50070;-32.946;-60.652;2023-04-25T11:41:53;19.07;95.44
63899;HTU21D;50070;-32.946;-60.652;2023-04-25T11:44:20;19.07;95.30
63899;HTU21D;50070;-32.946;-60.652;2023-04-25T11:46:47;19.16;96.07
63899;HTU21D;50070;-32.946;-60.652;2023-04-25T11:49:15;19.12;95.06
63899;HTU21D;50070;-32.946;-60.652;2023-04-25T11:51:46;18.87;95.69
63899;HTU21D;50070;-32.946;-60.652;2023-04-25T11:54:14;18.76;96.65
63899;HTU21D;50070;-32.946;-60.652;2023-04-25T11:56:45;18.85;97.03
63899;HTU21D;50070;-32.946;-60.652;2023-04-25T11:59:12;18.83;97.16
63899;HTU21D;50070;-32.946;-60.652;2023-04-25T12:01:41;18.95;97.11
63899;HTU21D;50070;-32.946;-60.652;2023-04-25T12:04:19;18.94;97.33
63899;HTU21D;50070;-32.946;-60.652;2023-04-25T12:06:49;18.89;96.92
63899;HTU21D;50070;-32.946;-60.652;2023-04-25T12:09:19;18.62;97.25
63899;HTU21D;50070;-32.946;-60.652;2023-04-25T12:11:55;18.70;97.75
63899;HTU21D;50070;-32.946;-60.652;2023-04-25T12:14:26;18.76;97.73
63899;HTU21D;50070;-32.946;-60.652;2023-04-25T12:16:57;18.58;98.00
63899;HTU21D;50070;-32.946;-60.652;2023-04-25T12:19:24;18.73;97.82
63899;HTU21D;50070;-32.946;-60.652;2023-04-25T12:21:51;18.72;97.59
63899;HTU21D;50070;-32.946;-60.652;2023-04-25T12:24:24;18.64;97.35
63899;HTU21D;50070;-32.946;-60.652;2023-04-25T12:27:02;18.56;97.60
63899;HTU21D;50070;-32.946;-60.652;2023-04-25T12:29:31;18.89;97.52
63899;HTU21D;50070;-32.946;-60.652;2023-04-25T12:31:58;18.94;97.23
63899;HTU21D;50070;-32.946;-60.652;2023-04-25T12:34:28;19.13;96.57
63899;HTU21D;50070;-32.946;-60.652;2023-04-25T12:36:54;19.16;95.65
63899;HTU21D;50070;-32.946;-60.652;2023-04-25T12:39:24;18.99;96.04
63899;HTU21D;50070;-32.946;-60.652;2023-04-25T12:41:54;19.12;96.91
63899;HTU21D;50070;-32.946;-60.652;2023-04-25T12:44:21;19.02;95.82
63899;HTU21D;50070;-32.946;-60.652;2023-04-25T12:46:48;19.25;95.49
63899;HTU21D;50070;-32.946;-60.652;2023-04-25T12:49:15;19.46;93.72
63899;HTU21D;50070;-32.946;-60.652;2023-04-25T12:51:42;19.46;94.56
63899;HTU21D;50070;-32.946;-60.652;2023-04-25T12:54:09;19.48;94.21
63899;HTU21D;50070;-32.946;-60.652;2023-04-25T12:56:36;19.35;94.88
63899;HTU21D;50070;-32.946;-60.652;2023-04-25T12:59:03;19.37;94.82
63899;HTU21D;50070;-32.946;-60.652;2023-04-25T13:01:30;19.47;93.59
63899;HTU21D;50070;-32.946;-60.652;2023-04-25T13:03:58;19.53;92.17
63899;HTU21D;50070;-32.946;-60.652;2023-04-25T13:06:24;19.52;92.46
63899;HTU21D;50070;-32.946;-60.652;2023-04-25T13:08:52;19.44;94.57
63899;HTU21D;50070;-32.946;-60.652;2023-04-25T13:11:19;19.50;94.98
63899;HTU21D;50070;-32.946;-60.652;2023-04-25T13:13:46;19.35;93.93
63899;HTU21D;50070;-32.946;-60.652;2023-04-25T13:16:12;19.52;94.51
63899;HTU21D;50070;-32.946;-60.652;2023-04-25T13:18:42;19.70;93.62
63899;HTU21D;50070;-32.946;-60.652;2023-04-25T13:21:12;19.61;93.56
63899;HTU21D;50070;-32.946;-60.652;2023-04-25T13:23:39;19.74;93.00
63899;HTU21D;50070;-32.946;-60.652;2023-04-25T13:26:08;19.79;93.55
63899;HTU21D;50070;-32.946;-60.652;2023-04-25T13:28:35;19.76;93.95
63899;HTU21D;50070;-32.946;-60.652;2023-04-25T13:31:02;19.73;93.49
63899;HTU21D;50070;-32.946;-60.652;2023-04-25T13:33:29;20.05;92.85
63899;HTU21D;50070;-32.946;-60.652;2023-04-25T13:35:56;20.11;92.34
63899;HTU21D;50070;-32.946;-60.652;2023-04-25T13:38:24;20.20;91.74
63899;HTU21D;50070;-32.946;-60.652;2023-04-25T13:40:52;20.18;91.32
63899;HTU21D;50070;-32.946;-60.652;2023-04-25T13:43:20;20.03;92.11
63899;HTU21D;50070;-32.946;-60.652;2023-04-25T13:45:50;20.14;92.26
63899;HTU21D;50070;-32.946;-60.652;2023-04-25T13:48:18;19.79;92.85
63899;HTU21D;50070;-32.946;-60.652;2023-04-25T13:50:46;19.88;92.70
63899;HTU21D;50070;-32.946;-60.652;2023-04-25T13:53:12;20.01;92.37
63899;HTU21D;50070;-32.946;-60.652;2023-04-25T13:55:39;19.97;92.77
63899;HTU21D;50070;-32.946;-60.652;2023-04-25T13:58:06;19.87;93.23
63899;HTU21D;50070;-32.946;-60.652;2023-04-25T14:00:37;20.03;92.86
63899;HTU21D;50070;-32.946;-60.652;2023-04-25T14:03:04;20.05;92.99
63899;HTU21D;50070;-32.946;-60.652;2023-04-25T14:05:32;20.10;92.10
63899;HTU21D;50070;-32.946;-60.652;2023-04-25T14:08:07;20.25;90.73
63899;HTU21D;50070;-32.946;-60.652;2023-04-25T14:10:35;20.11;91.15
63899;HTU21D;50070;-32.946;-60.652;2023-04-25T14:13:03;20.24;91.09
63899;HTU21D;50070;-32.946;-60.652;2023-04-25T14:15:31;20.39;90.17
63899;HTU21D;50070;-32.946;-60.652;2023-04-25T14:17:59;20.26;91.14
63899;HTU21D;50070;-32.946;-60.652;2023-04-25T14:20:26;20.46;89.90
63899;HTU21D;50070;-32.946;-60.652;2023-04-25T14:22:53;20.46;89.95
63899;HTU21D;50070;-32.946;-60.652;2023-04-25T14:25:22;20.40;90.37
63899;HTU21D;50070;-32.946;-60.652;2023-04-25T14:27:49;20.20;90.19
63899;HTU21D;50070;-32.946;-60.652;2023-04-25T14:30:16;20.06;91.02
63899;HTU21D;50070;-32.946;-60.652;2023-04-25T14:32:43;20.36;89.87
63899;HTU21D;50070;-32.946;-60.652;2023-04-25T14:35:11;20.45;90.10
63899;HTU21D;50070;-32.946;-60.652;2023-04-25T14:37:38;20.50;89.70
63899;HTU21D;50070;-32.946;-60.652;2023-04-25T14:40:05;20.36;90.04
63899;HTU21D;50070;-32.946;-60.652;2023-04-25T14:42:34;20.58;89.32
63899;HTU21D;50070;-32.946;-60.652;2023-04-25T14:45:02;20.51;88.86